Terminal Aerodrome Forecast
Issued by NWS Wakefield, VA

Home | Current Version | Previous Version | Text Only | Print | Product List | Glossary On
Versions: 1 2 3 4 5 6 7 8 9 10 11 12
000
FTUS41 KAKQ 281728
TAFRIC
TAF
KRIC 281728Z 2818/2918 19006KT P6SM FEW250
     FM290500 15004KT P6SM BKN120
     FM290800 VRB03KT 2SM BR OVC006
     FM291400 VRB03KT 4SM SHRA BR OVC015=

USA.gov is the U.S. government's official web portal to all federal, state and local government web resources and services.